Time;durP1;ratioP1;P1;durP2;ratioP2;P2;SDS_P1;SDS_P2;PMS_P1;PMS_P2;Temp;Humidity;BMP_temperature;BMP_pressure;BME280_temperature;BME280_humidity;BME280_pressure;Samples;Min_cycle;Max_cycle;Signal;HPM_P1;HPM_P2
2020/12/25 00:01:45;;;;;;;13.77;5.67;;;6.30;99.90;;;;;;5023356;28;20173;-91
2020/12/25 00:04:11;;;;;;;13.90;5.83;;;6.30;99.90;;;;;;5016004;28;20164;-91
2020/12/25 00:06:39;;;;;;;21.20;5.90;;;6.20;99.90;;;;;;4999431;28;20181;-91
2020/12/25 00:09:05;;;;;;;16.40;5.63;;;6.10;99.90;;;;;;4982635;28;20192;-92
2020/12/25 00:11:35;;;;;;;10.27;4.27;;;6.00;99.90;;;;;;5022816;28;20208;-91
2020/12/25 00:14:01;;;;;;;17.47;4.33;;;6.00;99.90;;;;;;5039706;28;20153;-91
2020/12/25 00:16:33;;;;;;;10.53;3.37;;;6.00;99.90;;;;;;5031173;28;20180;-91
2020/12/25 00:18:59;;;;;;;9.97;2.83;;;6.00;99.90;;;;;;5016250;28;20173;-91
2020/12/25 00:21:25;;;;;;;9.87;2.73;;;6.20;99.90;;;;;;4999307;28;20188;-90
2020/12/25 00:23:51;;;;;;;13.17;2.43;;;6.30;99.90;;;;;;4998932;28;20177;-91
2020/12/25 00:26:33;;;;;;;6.40;2.07;;;6.30;99.90;;;;;;5015788;28;20173;-91
2020/12/25 00:29:02;;;;;;;6.87;1.97;;;6.40;99.90;;;;;;5015179;28;20175;-91
2020/12/25 00:31:31;;;;;;;6.43;1.77;;;6.30;99.90;;;;;;4999202;28;20217;-91
2020/12/25 00:34:02;;;;;;;7.23;1.70;;;6.20;99.90;;;;;;5015031;28;20169;-91
2020/12/25 00:36:33;;;;;;;5.70;1.53;;;6.20;99.90;;;;;;5015154;28;20176;-91
2020/12/25 00:39:00;;;;;;;6.63;2.17;;;6.10;99.90;;;;;;5015111;28;20168;-91
2020/12/25 00:41:28;;;;;;;6.03;1.40;;;6.20;99.90;;;;;;5013887;28;20275;-91
2020/12/25 00:43:55;;;;;;;7.67;1.30;;;6.20;99.90;;;;;;4983114;28;20177;-92
2020/12/25 00:46:21;;;;;;;2.30;1.17;;;6.20;99.90;;;;;;4998362;28;20230;-92
2020/12/25 00:48:47;;;;;;;11.10;1.70;;;6.30;99.90;;;;;;5014643;28;20605;-91
2020/12/25 00:51:19;;;;;;;4.83;1.00;;;6.30;99.90;;;;;;5014719;28;20237;-90
2020/12/25 00:53:47;;;;;;;5.47;1.30;;;6.30;99.90;;;;;;5014848;28;20276;-91
2020/12/25 00:56:17;;;;;;;2.50;0.80;;;6.30;99.90;;;;;;5015853;28;20228;-91
2020/12/25 00:58:44;;;;;;;7.40;1.00;;;6.30;99.90;;;;;;5014475;28;20173;-92
2020/12/25 01:01:11;;;;;;;5.27;1.07;;;6.30;99.90;;;;;;5014972;28;20180;-92
2020/12/25 01:03:38;;;;;;;3.90;1.33;;;6.20;99.90;;;;;;5014848;28;20168;-91
2020/12/25 01:06:12;;;;;;;4.40;0.90;;;6.20;99.90;;;;;;5014950;28;20258;-91
2020/12/25 01:08:42;;;;;;;7.10;0.90;;;6.10;99.90;;;;;;5014505;28;20247;-91
2020/12/25 01:11:09;;;;;;;3.97;0.80;;;6.10;99.90;;;;;;5014584;28;20293;-91
2020/12/25 01:13:37;;;;;;;2.93;0.90;;;6.10;99.90;;;;;;5014240;28;20222;-91
2020/12/25 01:16:09;;;;;;;4.97;0.90;;;6.10;99.90;;;;;;5014340;28;20699;-91
2020/12/25 01:18:36;;;;;;;3.53;1.20;;;6.10;99.90;;;;;;5014711;28;20219;-92
2020/12/25 01:21:02;;;;;;;3.13;1.00;;;6.10;99.90;;;;;;5017579;28;20176;-91
2020/12/25 01:23:30;;;;;;;1.47;0.87;;;6.00;99.90;;;;;;5016522;28;20227;-91
2020/12/25 01:25:56;;;;;;;5.27;1.03;;;6.00;99.90;;;;;;5000720;28;20181;-91
2020/12/25 01:28:21;;;;;;;7.60;1.57;;;6.00;99.90;;;;;;5016414;28;20200;-92
2020/12/25 01:30:47;;;;;;;7.10;1.10;;;6.00;99.90;;;;;;5031972;28;20161;-94
2020/12/25 01:33:13;;;;;;;2.73;1.20;;;6.00;99.90;;;;;;5020510;28;20164;-90
2020/12/25 01:35:39;;;;;;;5.07;0.90;;;5.90;99.90;;;;;;5038396;28;20156;-91
2020/12/25 01:38:05;;;;;;;3.40;1.20;;;5.90;99.90;;;;;;5021706;28;20172;-91
2020/12/25 01:40:31;;;;;;;6.93;1.20;;;5.80;99.90;;;;;;5035987;28;20168;-91
2020/12/25 01:42:57;;;;;;;3.83;1.00;;;5.70;99.90;;;;;;5016764;28;20203;-92
2020/12/25 01:45:23;;;;;;;3.23;1.43;;;5.80;99.90;;;;;;5017540;28;20181;-91
2020/12/25 01:47:50;;;;;;;10.27;1.37;;;5.70;99.90;;;;;;4998887;28;20248;-91
2020/12/25 01:50:16;;;;;;;4.07;1.10;;;5.70;99.90;;;;;;5015455;28;20218;-91
2020/12/25 01:52:46;;;;;;;2.73;1.17;;;5.90;99.90;;;;;;5014781;28;20200;-91
2020/12/25 01:55:13;;;;;;;4.57;1.50;;;5.80;99.90;;;;;;5014744;28;20173;-91
2020/12/25 01:57:40;;;;;;;12.07;1.67;;;5.80;99.90;;;;;;5014685;28;20173;-89
2020/12/25 02:00:06;;;;;;;3.73;1.17;;;5.80;99.90;;;;;;5013905;28;20172;-90
2020/12/25 02:02:32;;;;;;;5.93;1.10;;;5.80;99.90;;;;;;4998039;28;20589;-91
2020/12/25 02:04:58;;;;;;;6.50;1.30;;;5.80;99.90;;;;;;5014117;28;20207;-90
2020/12/25 02:07:24;;;;;;;4.80;1.50;;;5.70;99.90;;;;;;5014153;28;20596;-91
2020/12/25 02:09:50;;;;;;;4.30;1.10;;;5.70;99.90;;;;;;5013561;28;20176;-90
2020/12/25 02:12:16;;;;;;;6.20;1.10;;;5.70;99.90;;;;;;5013730;28;20212;-91
2020/12/25 02:14:43;;;;;;;2.17;1.40;;;5.60;99.90;;;;;;5014046;28;20200;-91
2020/12/25 02:17:08;;;;;;;5.50;1.13;;;5.60;99.90;;;;;;5014022;28;20165;-91
2020/12/25 02:19:38;;;;;;;6.63;1.07;;;5.50;99.90;;;;;;5025841;28;20169;-93
2020/12/25 02:22:05;;;;;;;8.20;1.50;;;5.50;99.90;;;;;;5021220;28;20157;-92
2020/12/25 02:24:30;;;;;;;6.20;1.10;;;5.50;99.90;;;;;;5031026;28;20177;-92
2020/12/25 02:26:56;;;;;;;3.33;1.10;;;5.50;99.90;;;;;;5002540;28;20211;-91
2020/12/25 02:29:22;;;;;;;6.20;1.00;;;5.60;99.90;;;;;;5014210;28;20196;-91
2020/12/25 02:31:48;;;;;;;5.70;1.27;;;5.60;99.90;;;;;;5014686;28;20712;-91
2020/12/25 02:34:13;;;;;;;4.63;1.60;;;5.50;99.90;;;;;;4997740;28;20212;-92
2020/12/25 02:36:39;;;;;;;2.97;1.30;;;5.50;99.90;;;;;;5021341;28;20188;-92
2020/12/25 02:39:05;;;;;;;5.40;1.10;;;5.60;99.90;;;;;;5037035;28;20156;-92
2020/12/25 02:41:34;;;;;;;3.50;1.10;;;5.60;99.90;;;;;;5027432;28;20195;-91
2020/12/25 02:43:59;;;;;;;6.90;1.30;;;5.50;99.90;;;;;;5014877;28;20209;-91
2020/12/25 02:46:30;;;;;;;5.50;1.20;;;5.50;99.90;;;;;;5013388;28;20169;-91
2020/12/25 02:48:56;;;;;;;3.87;1.00;;;5.50;99.90;;;;;;4997320;28;20580;-92
2020/12/25 02:51:22;;;;;;;2.83;1.00;;;5.40;99.90;;;;;;5013339;28;20204;-91
2020/12/25 02:53:48;;;;;;;5.67;1.30;;;5.40;99.90;;;;;;5013379;28;20197;-92
2020/12/25 02:56:20;;;;;;;3.40;1.33;;;5.40;99.90;;;;;;4997531;28;20183;-92
2020/12/25 02:58:49;;;;;;;6.60;1.23;;;5.40;99.90;;;;;;4997112;28;20176;-90
2020/12/25 03:01:17;;;;;;;2.93;1.17;;;5.40;99.90;;;;;;5013563;28;20583;-91
2020/12/25 03:03:43;;;;;;;2.37;1.10;;;5.40;99.90;;;;;;5014909;28;20199;-91
2020/12/25 03:06:09;;;;;;;5.40;1.20;;;5.40;99.90;;;;;;5016992;28;20168;-91
2020/12/25 03:08:36;;;;;;;5.97;1.30;;;5.40;99.90;;;;;;5016612;28;20180;-91
2020/12/25 03:11:02;;;;;;;12.80;1.60;;;5.40;99.90;;;;;;5016485;28;20661;-91
2020/12/25 03:13:28;;;;;;;5.00;1.33;;;5.30;99.90;;;;;;5016631;28;20177;-91
2020/12/25 03:15:54;;;;;;;2.93;1.50;;;5.30;99.90;;;;;;5016902;28;20180;-91
2020/12/25 03:18:20;;;;;;;7.97;1.57;;;5.30;99.90;;;;;;5016667;28;20172;-91
2020/12/25 03:20:46;;;;;;;7.20;2.03;;;5.30;99.90;;;;;;5016831;28;20208;-91
2020/12/25 03:23:13;;;;;;;2.90;1.77;;;5.40;99.90;;;;;;5021292;28;20187;-92
2020/12/25 03:25:39;;;;;;;4.60;1.27;;;5.40;99.90;;;;;;5019209;28;20640;-91
2020/12/25 03:28:05;;;;;;;7.90;1.50;;;5.40;99.90;;;;;;5020098;28;20219;-91
2020/12/25 03:30:32;;;;;;;8.37;1.43;;;5.40;99.90;;;;;;5021327;28;20243;-92
2020/12/25 03:33:01;;;;;;;1.93;1.10;;;5.40;99.90;;;;;;5021340;28;20291;-91
2020/12/25 03:35:28;;;;;;;3.60;1.67;;;5.40;99.90;;;;;;4990865;28;20172;-91
2020/12/25 03:37:53;;;;;;;8.43;1.40;;;5.40;99.90;;;;;;5023063;28;20189;-92
2020/12/25 03:40:20;;;;;;;8.53;1.93;;;5.40;99.90;;;;;;5023009;28;20219;-91
2020/12/25 03:42:47;;;;;;;6.90;1.50;;;5.50;99.90;;;;;;5004585;28;20196;-91
2020/12/25 03:45:14;;;;;;;4.17;1.60;;;5.60;99.90;;;;;;5023260;28;20153;-92
2020/12/25 03:47:41;;;;;;;4.83;1.63;;;5.70;99.90;;;;;;5006933;28;20181;-91
2020/12/25 03:50:06;;;;;;;5.63;1.50;;;5.60;99.90;;;;;;5023050;28;20222;-90
2020/12/25 03:52:34;;;;;;;5.70;1.23;;;5.60;99.90;;;;;;5022493;28;20264;-91
2020/12/25 03:55:06;;;;;;;3.80;1.37;;;5.70;99.90;;;;;;5023002;28;20173;-91
2020/12/25 03:57:33;;;;;;;9.47;1.40;;;5.70;99.90;;;;;;5021476;28;20175;-91
2020/12/25 03:59:59;;;;;;;5.77;1.20;;;5.60;99.90;;;;;;5021466;28;20181;-91
2020/12/25 04:02:28;;;;;;;5.43;1.40;;;5.70;99.90;;;;;;5022395;28;20181;-91
2020/12/25 04:04:54;;;;;;;6.43;1.90;;;5.70;99.90;;;;;;5022541;28;20637;-91
2020/12/25 04:07:19;;;;;;;4.57;1.43;;;5.60;99.90;;;;;;5018611;28;20259;-90
2020/12/25 04:09:45;;;;;;;7.83;1.50;;;5.60;99.90;;;;;;5015977;28;20532;-90
2020/12/25 04:12:13;;;;;;;6.20;1.90;;;5.70;99.90;;;;;;5015749;28;20211;-90
2020/12/25 04:14:38;;;;;;;7.23;1.63;;;5.80;99.90;;;;;;5015030;28;20206;-90
2020/12/25 04:17:04;;;;;;;3.20;1.67;;;5.90;99.90;;;;;;5014992;28;20248;-90
2020/12/25 04:19:30;;;;;;;5.53;1.60;;;6.10;99.90;;;;;;5015511;28;20169;-90
2020/12/25 04:21:55;;;;;;;8.73;1.77;;;6.00;99.90;;;;;;5015478;28;20180;-90
2020/12/25 04:24:24;;;;;;;6.80;2.37;;;6.00;99.90;;;;;;4999148;28;20231;-89
2020/12/25 04:26:52;;;;;;;4.20;1.60;;;6.10;99.90;;;;;;4999687;28;20181;-90
2020/12/25 04:29:18;;;;;;;5.47;2.00;;;6.10;99.90;;;;;;5015025;28;20176;-90
2020/12/25 04:31:44;;;;;;;4.83;1.53;;;6.00;99.90;;;;;;5015435;28;20216;-90
2020/12/25 04:34:10;;;;;;;3.27;1.60;;;6.00;99.90;;;;;;5015319;28;20681;-90
2020/12/25 04:36:35;;;;;;;3.50;1.70;;;5.80;99.90;;;;;;5015520;28;20177;-90
2020/12/25 04:39:05;;;;;;;5.00;1.53;;;5.70;99.90;;;;;;5014973;28;20529;-90
2020/12/25 04:41:31;;;;;;;6.70;1.70;;;5.60;99.90;;;;;;5015005;28;20188;-90
2020/12/25 04:44:01;;;;;;;4.37;1.50;;;5.60;99.90;;;;;;5015534;28;20176;-90
2020/12/25 04:46:27;;;;;;;3.00;1.73;;;5.50;99.90;;;;;;5037284;28;20180;-91
2020/12/25 04:48:56;;;;;;;9.07;1.73;;;5.50;99.90;;;;;;5035828;28;20220;-91
2020/12/25 04:51:22;;;;;;;2.47;1.57;;;5.60;99.90;;;;;;5012971;28;20208;-90
2020/12/25 04:53:52;;;;;;;5.57;1.80;;;5.50;99.90;;;;;;5015286;28;20195;-90
2020/12/25 04:56:22;;;;;;;5.37;1.57;;;5.40;99.90;;;;;;4998492;28;20213;-90
2020/12/25 04:58:57;;;;;;;3.47;1.57;;;5.40;99.90;;;;;;5015181;28;20227;-90
2020/12/25 05:01:29;;;;;;;7.17;1.90;;;5.40;99.90;;;;;;5014807;28;20284;-90
2020/12/25 05:03:55;;;;;;;3.13;1.60;;;5.40;99.90;;;;;;5037407;28;20160;-92
2020/12/25 05:06:33;;;;;;;1.80;1.40;;;5.50;99.90;;;;;;5034087;28;20173;-90
2020/12/25 05:09:01;;;;;;;6.70;2.03;;;5.40;99.90;;;;;;5010461;28;20184;-91
2020/12/25 05:11:26;;;;;;;5.47;2.07;;;5.40;99.90;;;;;;5001675;28;20220;-91
2020/12/25 05:13:56;;;;;;;4.73;1.73;;;5.30;99.90;;;;;;5020756;28;20165;-90
2020/12/25 05:16:23;;;;;;;4.23;2.13;;;5.30;99.90;;;;;;5020786;28;20236;-91
2020/12/25 05:18:52;;;;;;;5.30;2.00;;;5.30;99.90;;;;;;5021736;28;20176;-91
2020/12/25 05:21:24;;;;;;;4.60;1.83;;;5.30;99.90;;;;;;5021064;28;20179;-90
2020/12/25 05:23:50;;;;;;;3.67;1.90;;;5.30;99.90;;;;;;5020952;28;20173;-91
2020/12/25 05:26:18;;;;;;;4.43;1.87;;;5.30;99.90;;;;;;5020302;28;20630;-90
2020/12/25 05:28:50;;;;;;;8.00;2.20;;;5.20;99.90;;;;;;5004446;28;20207;-91
2020/12/25 05:31:18;;;;;;;11.93;2.20;;;5.10;99.90;;;;;;5020207;28;20192;-91
2020/12/25 05:33:44;;;;;;;5.87;2.13;;;5.10;99.90;;;;;;5015747;28;20645;-89
2020/12/25 05:36:12;;;;;;;2.33;1.87;;;5.10;99.90;;;;;;5020740;28;20169;-91
2020/12/25 05:38:52;;;;;;;3.80;2.00;;;5.10;99.90;;;;;;5019514;28;20196;-90
2020/12/25 05:41:20;;;;;;;4.60;2.00;;;5.10;99.90;;;;;;5020263;28;20216;-90
2020/12/25 05:43:50;;;;;;;4.67;2.10;;;5.10;99.90;;;;;;5019843;28;20175;-91
2020/12/25 05:46:17;;;;;;;4.70;2.23;;;5.10;99.90;;;;;;5021660;28;20169;-90
2020/12/25 05:48:54;;;;;;;6.60;2.00;;;5.10;99.90;;;;;;5020614;28;20173;-91
2020/12/25 05:51:23;;;;;;;4.83;1.90;;;5.10;99.90;;;;;;5001151;28;20204;-91
2020/12/25 05:53:53;;;;;;;3.17;1.77;;;5.10;99.90;;;;;;5014744;28;20226;-91
2020/12/25 05:56:19;;;;;;;6.57;1.73;;;5.10;99.90;;;;;;5014287;28;20180;-91
2020/12/25 05:58:47;;;;;;;2.33;1.70;;;5.10;99.90;;;;;;4998086;28;20622;-92
2020/12/25 06:01:16;;;;;;;3.07;1.60;;;5.20;99.90;;;;;;5015149;28;20687;-91
2020/12/25 06:03:44;;;;;;;6.07;1.77;;;5.10;99.90;;;;;;5014467;28;20685;-91
2020/12/25 06:06:14;;;;;;;3.00;1.30;;;5.00;99.90;;;;;;5014433;28;20164;-92
2020/12/25 06:09:10;;;;;;;4.67;1.67;;;5.00;99.90;;;;;;5014555;28;20223;-92
2020/12/25 06:11:39;;;;;;;7.97;2.60;;;5.00;99.90;;;;;;4993444;28;20272;-91
2020/12/25 06:14:07;;;;;;;6.63;1.40;;;5.00;99.90;;;;;;5003651;28;20172;-90
2020/12/25 06:16:38;;;;;;;6.13;1.43;;;5.10;99.90;;;;;;4999163;28;20243;-92
2020/12/25 06:19:22;;;;;;;5.97;1.43;;;5.20;99.90;;;;;;5013887;28;20266;-91
2020/12/25 06:21:58;;;;;;;3.97;0.93;;;5.20;99.90;;;;;;5014230;28;20202;-91
2020/12/25 06:24:30;;;;;;;5.10;1.30;;;5.30;99.90;;;;;;5014364;28;20511;-92
2020/12/25 06:27:01;;;;;;;7.07;1.00;;;5.20;99.90;;;;;;5014409;28;20165;-92
2020/12/25 06:29:28;;;;;;;7.50;0.90;;;5.20;99.90;;;;;;5015378;28;20236;-92
2020/12/25 06:32:01;;;;;;;5.97;1.07;;;5.20;99.90;;;;;;5014018;28;20201;-91
2020/12/25 06:34:47;;;;;;;2.27;1.00;;;5.30;99.90;;;;;;5013893;28;20176;-91
2020/12/25 06:37:15;;;;;;;5.93;1.00;;;5.40;99.90;;;;;;5014397;28;20214;-91
2020/12/25 06:39:47;;;;;;;6.73;0.90;;;5.60;99.90;;;;;;5017778;28;20173;-91
2020/12/25 06:42:13;;;;;;;5.27;1.23;;;5.70;99.90;;;;;;5017893;28;20252;-91
2020/12/25 06:44:46;;;;;;;3.60;1.07;;;5.80;99.90;;;;;;5002019;28;20203;-92
2020/12/25 06:47:30;;;;;;;3.77;1.17;;;5.90;99.90;;;;;;5018297;28;20618;-92
2020/12/25 06:49:56;;;;;;;4.47;0.90;;;5.90;99.90;;;;;;5017852;28;20172;-91
2020/12/25 06:52:30;;;;;;;7.13;1.10;;;6.00;99.90;;;;;;5001564;28;20732;-91
2020/12/25 06:54:59;;;;;;;4.70;0.87;;;6.00;99.90;;;;;;5017249;28;20173;-89
2020/12/25 06:57:28;;;;;;;7.43;0.90;;;6.10;99.90;;;;;;5000790;28;20772;-89
2020/12/25 07:00:01;;;;;;;5.03;0.97;;;6.20;99.90;;;;;;5001445;28;20204;-90
2020/12/25 07:02:27;;;;;;;3.07;0.90;;;6.10;99.90;;;;;;5017681;28;20169;-90
2020/12/25 07:05:01;;;;;;;2.93;0.87;;;6.00;99.90;;;;;;5017014;28;20184;-90
2020/12/25 07:07:32;;;;;;;2.50;1.00;;;6.00;99.90;;;;;;5016929;28;20177;-90
2020/12/25 07:10:05;;;;;;;5.80;1.10;;;6.10;99.90;;;;;;5023685;28;20153;-91
2020/12/25 07:12:31;;;;;;;5.83;1.10;;;6.10;99.90;;;;;;5041250;28;20220;-91
2020/12/25 07:14:57;;;;;;;8.53;1.33;;;6.00;99.90;;;;;;5035570;28;20177;-88
2020/12/25 07:17:25;;;;;;;5.53;1.10;;;6.00;99.90;;;;;;4993380;28;20176;-90
2020/12/25 07:19:52;;;;;;;7.77;1.63;;;6.10;99.90;;;;;;5018941;28;20260;-90
2020/12/25 07:22:22;;;;;;;5.20;1.87;;;6.20;99.90;;;;;;5006170;28;20173;-90
2020/12/25 07:24:50;;;;;;;6.80;2.50;;;6.20;99.90;;;;;;5016758;28;20173;-89
2020/12/25 07:27:15;;;;;;;9.83;2.73;;;6.20;99.90;;;;;;5022230;28;20165;-88
2020/12/25 07:29:43;;;;;;;6.40;1.97;;;6.20;99.90;;;;;;5040421;28;20171;-89
2020/12/25 07:32:12;;;;;;;6.77;1.47;;;6.20;99.90;;;;;;5032564;28;20233;-90
2020/12/25 07:34:39;;;;;;;7.87;1.20;;;6.30;99.90;;;;;;5018231;28;20224;-90
2020/12/25 07:37:07;;;;;;;3.93;0.87;;;6.30;99.90;;;;;;5000051;28;20184;-90
2020/12/25 07:39:33;;;;;;;7.67;1.07;;;6.20;99.90;;;;;;5000346;28;20282;-90
2020/12/25 07:41:58;;;;;;;7.60;1.70;;;6.10;99.90;;;;;;5015785;28;20195;-90
2020/12/25 07:44:26;;;;;;;3.43;1.23;;;6.10;99.90;;;;;;5016376;28;20173;-89
2020/12/25 07:46:52;;;;;;;2.97;1.40;;;6.00;99.90;;;;;;4999799;28;20169;-90
2020/12/25 07:49:19;;;;;;;6.10;0.90;;;6.00;99.90;;;;;;5000840;28;20219;-89
2020/12/25 07:51:49;;;;;;;4.67;1.20;;;6.00;99.90;;;;;;5016103;28;20200;-89
2020/12/25 07:54:16;;;;;;;3.83;0.93;;;6.10;99.90;;;;;;5016097;28;20696;-90
2020/12/25 07:56:42;;;;;;;5.67;0.70;;;6.20;99.90;;;;;;5016035;28;20169;-89
2020/12/25 07:59:08;;;;;;;2.43;0.80;;;6.20;99.90;;;;;;5000237;28;20192;-89
2020/12/25 08:01:34;;;;;;;4.87;0.80;;;6.20;99.90;;;;;;4999903;28;20581;-89
2020/12/25 08:04:02;;;;;;;3.63;0.90;;;6.20;99.90;;;;;;5016057;28;20168;-90
2020/12/25 08:06:29;;;;;;;1.80;0.90;;;6.20;99.90;;;;;;5016017;28;20169;-90
2020/12/25 08:09:08;;;;;;;10.50;1.10;;;6.30;99.90;;;;;;5016198;28;20180;-89
2020/12/25 08:11:34;;;;;;;3.73;0.63;;;6.40;99.90;;;;;;5016409;28;20231;-89
2020/12/25 08:14:07;;;;;;;5.33;1.30;;;6.50;99.90;;;;;;5017330;28;20164;-90
2020/12/25 08:16:37;;;;;;;8.40;4.23;;;6.60;99.90;;;;;;5016010;28;20303;-89
2020/12/25 08:19:04;;;;;;;13.60;4.87;;;6.80;99.90;;;;;;5016289;28;20173;-89
2020/12/25 08:21:37;;;;;;;12.67;3.07;;;7.00;99.90;;;;;;5017083;28;20177;-89
2020/12/25 08:24:03;;;;;;;6.43;1.63;;;7.30;99.90;;;;;;5020865;28;20236;-89
2020/12/25 08:26:31;;;;;;;9.87;2.23;;;7.40;99.90;;;;;;5004059;28;20200;-89
2020/12/25 08:28:56;;;;;;;8.10;1.70;;;7.60;99.90;;;;;;5002425;28;20627;-90
2020/12/25 08:31:25;;;;;;;6.30;0.90;;;7.80;99.90;;;;;;5018297;28;20208;-89
2020/12/25 08:34:00;;;;;;;6.53;1.17;;;7.90;99.90;;;;;;5017185;28;20235;-90
2020/12/25 08:36:31;;;;;;;7.93;1.23;;;7.90;99.90;;;;;;5022594;28;20166;-91
2020/12/25 08:38:56;;;;;;;5.37;1.47;;;7.80;99.90;;;;;;5039273;28;20165;-89
2020/12/25 08:41:32;;;;;;;4.03;1.40;;;7.80;99.90;;;;;;5039038;28;20183;-92
2020/12/25 08:44:12;;;;;;;3.37;1.13;;;7.90;99.90;;;;;;5039300;28;20155;-90
2020/12/25 08:46:42;;;;;;;7.23;1.30;;;7.70;99.90;;;;;;5038800;28;20176;-90
2020/12/25 08:49:07;;;;;;;9.13;1.70;;;7.80;99.90;;;;;;5020646;28;20179;-90
2020/12/25 08:51:37;;;;;;;4.20;1.50;;;7.80;99.90;;;;;;5003764;28;20200;-90
2020/12/25 08:54:03;;;;;;;4.43;1.23;;;7.70;99.90;;;;;;5016684;28;20168;-90
2020/12/25 08:56:29;;;;;;;9.60;1.40;;;7.50;99.90;;;;;;5016299;28;20306;-90
2020/12/25 08:59:01;;;;;;;5.03;1.93;;;7.30;99.90;;;;;;5000148;28;20274;-89
2020/12/25 09:01:29;;;;;;;3.77;1.10;;;7.10;99.90;;;;;;5015251;28;20695;-90
2020/12/25 09:04:01;;;;;;;4.13;1.50;;;7.20;99.90;;;;;;5000237;28;20177;-89
2020/12/25 09:06:27;;;;;;;4.03;1.50;;;7.40;99.90;;;;;;5015807;28;20568;-89
2020/12/25 09:08:53;;;;;;;5.87;1.20;;;7.60;99.90;;;;;;5003290;28;20204;-90
2020/12/25 09:11:23;;;;;;;5.77;1.47;;;8.30;99.90;;;;;;5014944;28;20208;-89
2020/12/25 09:13:49;;;;;;;3.63;1.50;;;9.40;99.90;;;;;;4999384;28;20181;-89
2020/12/25 09:16:15;;;;;;;4.00;1.43;;;9.70;99.90;;;;;;5015072;28;20172;-90
2020/12/25 09:18:41;;;;;;;8.27;1.50;;;9.80;99.90;;;;;;5015042;28;20171;-90
2020/12/25 09:21:18;;;;;;;7.83;1.40;;;10.20;99.90;;;;;;5014928;28;20164;-90
2020/12/25 09:23:47;;;;;;;5.10;1.33;;;11.20;99.90;;;;;;5014922;28;20283;-90
2020/12/25 09:26:14;;;;;;;4.93;1.70;;;11.40;99.90;;;;;;4999181;28;20267;-90
2020/12/25 09:28:41;;;;;;;3.30;1.45;;;11.10;99.90;;;;;;5015138;28;20562;-90
2020/12/25 09:31:08;;;;;;;3.10;1.40;;;10.60;99.90;;;;;;5017568;28;20203;-90
2020/12/25 09:33:35;;;;;;;4.03;1.92;;;10.10;99.90;;;;;;4999218;28;20186;-89
2020/12/25 09:36:03;;;;;;;4.10;2.00;;;9.80;99.90;;;;;;5018645;28;20164;-90
2020/12/25 09:38:28;;;;;;;6.68;2.08;;;9.60;99.90;;;;;;4998885;28;20172;-90
2020/12/25 09:40:54;;;;;;;9.97;2.77;;;9.70;99.90;;;;;;5006439;28;20632;-89
2020/12/25 09:43:20;;;;;;;7.32;1.98;;;11.80;99.90;;;;;;4995883;28;20166;-90
2020/12/25 09:45:46;;;;;;;5.50;1.92;;;15.10;99.90;;;;;;4995421;28;20169;-90
2020/12/25 09:48:12;;;;;;;4.43;1.73;;;17.80;99.90;;;;;;5013015;28;20179;-89
2020/12/25 09:50:40;;;;;;;5.93;1.67;;;19.60;99.90;;;;;;5000637;28;20200;-90
2020/12/25 09:53:06;;;;;;;4.65;1.58;;;21.10;99.90;;;;;;5038115;28;20212;-91
2020/12/25 09:55:39;;;;;;;3.30;1.70;;;20.00;99.90;;;;;;5032907;28;20240;-90
2020/12/25 09:58:06;;;;;;;3.65;1.73;;;18.00;99.90;;;;;;5017285;28;20173;-90
2020/12/25 10:00:32;;;;;;;6.80;2.67;;;16.40;99.90;;;;;;5017900;28;20183;-89
2020/12/25 10:02:58;;;;;;;7.38;1.83;;;15.40;99.90;;;;;;5015891;28;20176;-90
2020/12/25 10:05:24;;;;;;;4.80;1.85;;;15.10;99.90;;;;;;5018376;28;20195;-90
2020/12/25 10:07:52;;;;;;;5.53;1.77;;;16.70;99.90;;;;;;5017071;28;20173;-89
2020/12/25 10:10:19;;;;;;;2.35;1.30;;;19.50;99.90;;;;;;5017121;28;20175;-90
2020/12/25 10:12:56;;;;;;;3.00;1.52;;;21.90;99.90;;;;;;5001923;28;20246;-90
2020/12/25 10:15:23;;;;;;;3.17;1.30;;;23.40;99.90;;;;;;5006987;28;20279;-91
2020/12/25 10:17:48;;;;;;;4.65;1.60;;;23.40;99.90;;;;;;5020556;28;20169;-91
2020/12/25 10:20:14;;;;;;;9.93;2.53;;;24.40;99.90;;;;;;5017855;28;20215;-90
2020/12/25 10:22:40;;;;;;;8.65;2.05;;;24.90;97.60;;;;;;5018005;28;20175;-91
2020/12/25 10:25:06;;;;;;;5.97;2.80;;;24.70;96.70;;;;;;5016657;28;20618;-91
2020/12/25 10:27:34;;;;;;;8.75;1.98;;;24.00;97.20;;;;;;5018196;28;20177;-91
2020/12/25 10:30:00;;;;;;;4.60;1.52;;;22.80;98.20;;;;;;5002988;28;20207;-91
2020/12/25 10:32:28;;;;;;;4.30;1.77;;;21.30;99.60;;;;;;5018914;28;20271;-90
2020/12/25 10:34:54;;;;;;;6.00;1.80;;;19.60;99.90;;;;;;5002725;28;20187;-89
2020/12/25 10:37:21;;;;;;;4.70;1.70;;;17.60;99.90;;;;;;5018682;28;20173;-90
2020/12/25 10:39:47;;;;;;;4.97;2.00;;;16.00;99.90;;;;;;4998269;28;20187;-92
2020/12/25 10:42:14;;;;;;;6.88;2.40;;;15.00;99.90;;;;;;5016481;28;20551;-91
2020/12/25 10:44:46;;;;;;;5.43;2.17;;;14.30;99.90;;;;;;5013405;28;20201;-90
2020/12/25 10:47:12;;;;;;;6.50;1.67;;;13.30;99.90;;;;;;4982785;28;20201;-91
2020/12/25 10:49:39;;;;;;;7.85;2.08;;;12.40;99.90;;;;;;5000746;28;20502;-91
2020/12/25 10:52:04;;;;;;;8.55;2.10;;;11.90;99.90;;;;;;4991521;28;20260;-91
2020/12/25 10:54:32;;;;;;;10.23;2.40;;;12.20;99.90;;;;;;4998878;28;20173;-91
2020/12/25 10:56:58;;;;;;;7.30;2.15;;;14.80;99.90;;;;;;5002719;28;20177;-91
2020/12/25 10:59:24;;;;;;;5.95;1.83;;;18.00;99.90;;;;;;5002036;28;20539;-91
2020/12/25 11:01:49;;;;;;;4.90;1.50;;;20.30;99.90;;;;;;5020286;28;20634;-89
2020/12/25 11:04:15;;;;;;;6.00;1.67;;;22.10;99.90;;;;;;5016788;28;20172;-90
2020/12/25 11:06:41;;;;;;;4.72;1.90;;;23.80;99.90;;;;;;5016850;28;20183;-89
2020/12/25 11:09:09;;;;;;;7.03;3.05;;;24.00;98.20;;;;;;5017000;28;20165;-90
2020/12/25 11:11:40;;;;;;;17.08;4.50;;;24.20;97.30;;;;;;5018235;28;20244;-90
2020/12/25 11:14:08;;;;;;;4.82;1.88;;;24.90;95.30;;;;;;5001417;28;20165;-89
2020/12/25 11:16:40;;;;;;;9.27;1.70;;;25.50;94.40;;;;;;5017016;28;20173;-90
2020/12/25 11:19:13;;;;;;;7.65;1.70;;;25.90;93.00;;;;;;5016389;28;20193;-89
2020/12/25 11:21:41;;;;;;;6.53;2.10;;;24.70;94.10;;;;;;5016810;28;20220;-90
2020/12/25 11:24:07;;;;;;;11.70;1.85;;;25.40;93.10;;;;;;5015852;28;20171;-90
2020/12/25 11:26:40;;;;;;;6.45;2.35;;;25.00;92.90;;;;;;4985690;28;20173;-91
2020/12/25 11:29:07;;;;;;;10.43;3.08;;;25.30;93.10;;;;;;4980586;28;20173;-90
2020/12/25 11:31:35;;;;;;;6.15;1.88;;;25.60;91.80;;;;;;5011906;28;20275;-91
2020/12/25 11:34:01;;;;;;;6.47;1.83;;;25.20;91.40;;;;;;5016479;28;20201;-91
2020/12/25 11:36:29;;;;;;;7.80;1.90;;;23.50;92.00;;;;;;5016452;28;20533;-91
2020/12/25 11:38:56;;;;;;;5.32;1.80;;;22.90;92.70;;;;;;5016629;28;20176;-91
2020/12/25 11:41:23;;;;;;;3.38;1.50;;;23.00;93.10;;;;;;5016248;28;20177;-91
2020/12/25 11:43:50;;;;;;;6.60;2.08;;;23.10;93.30;;;;;;5001479;28;20250;-90
2020/12/25 11:46:23;;;;;;;8.07;1.63;;;22.60;93.00;;;;;;5017079;28;20176;-90
2020/12/25 11:48:49;;;;;;;7.03;1.80;;;21.50;94.60;;;;;;5016980;28;20203;-90
2020/12/25 11:51:20;;;;;;;9.05;2.97;;;21.00;94.40;;;;;;5016496;28;20173;-90
2020/12/25 11:53:46;;;;;;;17.52;3.75;;;20.60;94.90;;;;;;5017882;28;20264;-90
2020/12/25 11:56:17;;;;;;;4.93;1.75;;;20.00;95.70;;;;;;5019626;28;20208;-90
2020/12/25 11:58:45;;;;;;;2.88;1.50;;;19.90;96.40;;;;;;5037980;28;20157;-92
2020/12/25 12:01:10;;;;;;;6.53;2.10;;;19.90;96.20;;;;;;5036586;28;20176;-91
2020/12/25 12:03:41;;;;;;;5.10;1.65;;;19.30;97.30;;;;;;5016010;28;20181;-91
2020/12/25 12:06:09;;;;;;;4.43;1.88;;;19.90;97.30;;;;;;5017303;28;20172;-91
2020/12/25 12:08:41;;;;;;;7.40;2.00;;;21.50;96.20;;;;;;5016488;28;20210;-91
2020/12/25 12:11:06;;;;;;;5.35;1.45;;;22.30;94.80;;;;;;5020001;28;20204;-90
2020/12/25 12:13:32;;;;;;;9.98;2.15;;;22.20;94.70;;;;;;5028035;28;20173;-91
2020/12/25 12:16:00;;;;;;;8.95;3.03;;;22.20;94.40;;;;;;5040295;28;20157;-92
2020/12/25 12:18:26;;;;;;;7.15;2.17;;;21.60;95.00;;;;;;5038889;28;20219;-91
2020/12/25 12:20:54;;;;;;;6.50;2.10;;;21.40;94.60;;;;;;5016874;28;20622;-90
2020/12/25 12:23:20;;;;;;;8.25;2.75;;;20.50;95.30;;;;;;5030828;28;20260;-91
2020/12/25 12:25:45;;;;;;;4.50;1.65;;;20.20;94.50;;;;;;5026482;28;20172;-90
2020/12/25 12:28:14;;;;;;;3.10;1.63;;;19.10;96.30;;;;;;5027947;28;20188;-90
2020/12/25 12:30:40;;;;;;;4.80;1.83;;;19.00;96.60;;;;;;5009213;28;20237;-91
2020/12/25 12:33:06;;;;;;;8.82;2.30;;;17.80;98.10;;;;;;5018505;28;20248;-91
2020/12/25 12:35:35;;;;;;;7.68;2.35;;;16.40;99.90;;;;;;5019891;28;20165;-92
2020/12/25 12:38:03;;;;;;;10.43;2.45;;;15.50;99.90;;;;;;5004185;28;20176;-91
2020/12/25 12:40:29;;;;;;;6.97;3.67;;;15.80;99.90;;;;;;5026633;28;20629;-91
2020/12/25 12:42:57;;;;;;;9.10;1.90;;;17.00;99.90;;;;;;5024231;28;20211;-92
2020/12/25 12:45:23;;;;;;;3.58;1.60;;;17.20;99.90;;;;;;5015534;28;20181;-91
2020/12/25 12:47:49;;;;;;;4.45;1.70;;;15.50;99.90;;;;;;5025993;28;20200;-91
2020/12/25 12:50:14;;;;;;;6.25;1.40;;;13.90;99.90;;;;;;5026835;28;20232;-92
2020/12/25 12:52:43;;;;;;;10.93;1.98;;;12.80;99.90;;;;;;5026181;28;20209;-92
2020/12/25 12:55:12;;;;;;;13.13;7.82;;;13.50;99.90;;;;;;5027014;28;20656;-91
2020/12/25 12:57:37;;;;;;;9.38;4.28;;;13.10;99.90;;;;;;5021617;28;20181;-92